createdAt,value
2018-04-06T00:00:34.825Z,93.10
2018-04-06T00:03:02.289Z,93.10
2018-04-06T00:05:29.750Z,93.20
2018-04-06T00:07:57.248Z,93.10
2018-04-06T00:10:24.686Z,93.00
2018-04-06T00:12:52.114Z,93.00
2018-04-06T00:15:19.569Z,93.00
2018-04-06T00:17:47.010Z,92.90
2018-04-06T00:20:14.465Z,92.90
2018-04-06T00:22:41.908Z,92.70
2018-04-06T00:25:10.130Z,92.70
2018-04-06T00:27:37.581Z,92.70
2018-04-06T00:30:05.019Z,92.70
2018-04-06T00:32:32.483Z,92.60
2018-04-06T00:34:59.991Z,92.60
2018-04-06T00:37:27.476Z,92.60
2018-04-06T00:39:54.949Z,92.70
2018-04-06T00:42:22.426Z,92.70
2018-04-06T00:44:49.898Z,92.70
2018-04-06T00:47:17.338Z,92.70
2018-04-06T00:49:44.835Z,92.70
2018-04-06T00:52:12.289Z,92.80
2018-04-06T00:54:39.725Z,92.80
2018-04-06T00:57:07.154Z,92.80
2018-04-06T00:59:34.670Z,92.80
2018-04-06T01:02:02.897Z,92.90
2018-04-06T01:04:30.335Z,92.80
2018-04-06T01:06:57.796Z,92.90
2018-04-06T01:09:25.256Z,92.90
2018-04-06T01:11:52.718Z,92.90
2018-04-06T01:14:20.166Z,92.90
2018-04-06T01:16:47.633Z,92.90
2018-04-06T01:19:15.143Z,92.90
2018-04-06T01:21:43.354Z,93.00
2018-04-06T01:24:10.810Z,93.00
2018-04-06T01:26:38.278Z,93.00
2018-04-06T01:29:05.729Z,93.00
2018-04-06T01:31:33.181Z,93.00
2018-04-06T01:34:00.654Z,93.00
2018-04-06T01:36:28.103Z,93.00
2018-04-06T01:38:55.548Z,93.00
2018-04-06T01:41:23.035Z,93.00
2018-04-06T01:43:50.498Z,93.00
2018-04-06T01:46:17.937Z,93.00
2018-04-06T01:48:45.388Z,93.00
2018-04-06T01:51:12.846Z,93.10
2018-04-06T01:53:40.312Z,93.10
2018-04-06T01:56:07.750Z,93.10
2018-04-06T01:58:35.219Z,93.10
2018-04-06T02:01:02.675Z,93.10
2018-04-06T02:03:30.170Z,93.10
2018-04-06T02:05:57.644Z,93.20
2018-04-06T02:08:25.853Z,93.20
2018-04-06T02:10:53.312Z,93.20
2018-04-06T02:13:20.778Z,93.30
2018-04-06T02:15:48.234Z,93.30
2018-04-06T02:18:15.693Z,93.30
2018-04-06T02:20:43.158Z,93.20
2018-04-06T02:23:10.597Z,93.30
2018-04-06T02:25:38.059Z,93.30
2018-04-06T02:28:05.511Z,93.60
2018-04-06T02:30:33.103Z,93.20
2018-04-06T02:33:01.308Z,93.30
2018-04-06T02:35:28.755Z,93.30
2018-04-06T02:37:56.976Z,93.40
2018-04-06T02:40:24.418Z,93.40
2018-04-06T02:42:51.894Z,93.40
2018-04-06T02:45:19.404Z,93.40
2018-04-06T02:47:46.863Z,93.40
2018-04-06T02:50:15.074Z,93.50
2018-04-06T02:52:42.539Z,93.40
2018-04-06T02:55:09.990Z,93.40
2018-04-06T02:57:37.445Z,93.40
2018-04-06T03:00:04.901Z,93.40
2018-04-06T03:02:32.373Z,93.40
2018-04-06T03:04:59.828Z,93.40
2018-04-06T03:07:27.271Z,93.40
2018-04-06T03:09:54.754Z,93.40
2018-04-06T03:12:22.210Z,93.50
2018-04-06T03:14:49.659Z,93.50
2018-04-06T03:17:17.118Z,93.50
2018-04-06T03:19:44.601Z,93.40
2018-04-06T03:22:12.050Z,93.50
2018-04-06T03:24:39.488Z,93.60
2018-04-06T03:27:06.962Z,93.50
2018-04-06T03:29:34.416Z,93.50
2018-04-06T03:32:01.863Z,93.60
2018-04-06T03:34:29.334Z,93.60
2018-04-06T03:36:56.774Z,93.50
2018-04-06T03:39:24.245Z,93.60
2018-04-06T03:41:51.690Z,93.50
2018-04-06T03:44:19.166Z,93.60
2018-04-06T03:46:46.638Z,93.60
2018-04-06T03:49:14.094Z,93.60
2018-04-06T03:51:42.286Z,93.90
2018-04-06T03:54:10.513Z,93.70
2018-04-06T03:56:37.968Z,93.60
2018-04-06T03:59:05.427Z,93.70
2018-04-06T04:01:32.896Z,93.70
2018-04-06T04:04:00.356Z,93.70
2018-04-06T04:06:27.811Z,93.70
2018-04-06T04:08:55.269Z,93.70
2018-04-06T04:11:22.722Z,93.70
2018-04-06T04:13:50.174Z,93.70
2018-04-06T04:16:17.628Z,94.00
2018-04-06T04:18:45.100Z,93.80
2018-04-06T04:21:12.555Z,93.80
2018-04-06T04:23:40.003Z,93.80
2018-04-06T04:26:07.467Z,93.80
2018-04-06T04:28:34.936Z,93.80
2018-04-06T04:31:02.474Z,93.80
2018-04-06T04:33:29.916Z,93.80
2018-04-06T04:35:57.349Z,93.90
2018-04-06T04:38:24.809Z,93.90
2018-04-06T04:40:52.238Z,93.90
2018-04-06T04:43:19.708Z,93.90
2018-04-06T04:45:47.180Z,93.80
2018-04-06T04:48:14.646Z,93.90
2018-04-06T04:50:42.093Z,93.90
2018-04-06T04:53:09.554Z,93.90
2018-04-06T04:55:36.994Z,94.00
2018-04-06T04:58:04.442Z,94.00
2018-04-06T05:00:32.653Z,94.00
2018-04-06T05:03:00.176Z,93.90
2018-04-06T05:05:28.377Z,94.00
2018-04-06T05:07:56.589Z,94.30
2018-04-06T05:10:24.050Z,94.00
2018-04-06T05:12:52.986Z,94.00
2018-04-06T05:15:20.443Z,94.00
2018-04-06T05:17:47.878Z,94.00
2018-04-06T05:20:16.123Z,94.00
2018-04-06T05:22:43.549Z,94.00
2018-04-06T05:25:11.039Z,94.00
2018-04-06T05:27:38.496Z,94.00
2018-04-06T05:30:06.783Z,94.00
2018-04-06T05:32:34.239Z,94.10
2018-04-06T05:35:01.698Z,94.10
2018-04-06T05:37:29.196Z,94.10
2018-04-06T05:39:56.617Z,94.10
2018-04-06T05:42:24.074Z,94.20
2018-04-06T05:44:51.518Z,94.20
2018-04-06T05:47:18.978Z,94.20
2018-04-06T05:49:46.432Z,94.20
2018-04-06T05:52:13.962Z,94.30
2018-04-06T05:54:41.432Z,94.60
2018-04-06T05:57:08.892Z,94.30
2018-04-06T05:59:36.347Z,94.30
2018-04-06T06:02:03.808Z,94.40
2018-04-06T06:04:31.266Z,94.40
2018-04-06T06:06:58.740Z,94.40
2018-04-06T06:09:26.202Z,94.40
2018-04-06T06:11:53.822Z,94.40
2018-04-06T06:14:21.322Z,94.40
2018-04-06T06:16:48.769Z,94.40
2018-04-06T06:19:16.227Z,94.40
2018-04-06T06:21:43.971Z,94.40
2018-04-06T06:24:11.417Z,94.50
2018-04-06T06:26:38.863Z,94.50
2018-04-06T06:29:06.343Z,94.50
2018-04-06T06:31:33.788Z,94.40
2018-04-06T06:34:01.303Z,94.50
2018-04-06T06:36:29.533Z,94.40
2018-04-06T06:38:56.997Z,94.40
2018-04-06T06:41:24.473Z,94.40
2018-04-06T06:43:52.028Z,94.40
2018-04-06T06:46:19.495Z,94.40
2018-04-06T06:48:47.691Z,94.50
2018-04-06T06:51:15.146Z,94.30
2018-04-06T06:53:42.586Z,94.70
2018-04-06T06:56:10.810Z,94.30
2018-04-06T06:58:38.255Z,94.20
2018-04-06T07:01:05.721Z,94.10
2018-04-06T07:03:33.149Z,94.00
2018-04-06T07:06:00.609Z,93.90
2018-04-06T07:08:28.035Z,93.80
2018-04-06T07:10:55.501Z,93.70
2018-04-06T07:13:23.734Z,93.40
2018-04-06T07:15:51.163Z,93.40
2018-04-06T07:18:18.614Z,93.60
2018-04-06T07:20:46.070Z,93.80
2018-04-06T07:23:13.546Z,93.70
2018-04-06T07:25:40.995Z,93.30
2018-04-06T07:28:08.430Z,93.10
2018-04-06T07:30:36.653Z,93.00
2018-04-06T07:33:04.112Z,93.00
2018-04-06T07:35:31.538Z,92.20
2018-04-06T07:37:58.974Z,92.20
2018-04-06T07:40:27.198Z,92.30
2018-04-06T07:42:54.685Z,92.30
2018-04-06T07:45:22.148Z,92.40
2018-04-06T07:47:49.808Z,92.50
2018-04-06T07:50:17.267Z,92.40
2018-04-06T07:52:44.735Z,92.80
2018-04-06T07:55:12.938Z,92.50
2018-04-06T07:57:40.394Z,92.50
2018-04-06T08:00:07.856Z,91.70
2018-04-06T08:02:35.290Z,91.90
2018-04-06T08:05:03.522Z,89.80
2018-04-06T08:07:31.754Z,87.40
2018-04-06T08:09:59.199Z,87.50
2018-04-06T08:12:26.653Z,85.40
2018-04-06T08:14:54.111Z,84.60
2018-04-06T08:17:21.573Z,84.40
2018-04-06T08:19:49.118Z,81.60
2018-04-06T08:22:16.639Z,80.50
2018-04-06T08:24:44.132Z,80.20
2018-04-06T08:27:11.589Z,80.10
2018-04-06T08:29:39.051Z,79.10
2018-04-06T08:32:06.506Z,77.10
2018-04-06T08:34:33.955Z,75.00
2018-04-06T08:37:01.426Z,74.60
2018-04-06T08:39:28.891Z,70.80
2018-04-06T08:41:56.332Z,72.10
2018-04-06T08:44:23.820Z,71.70
2018-04-06T08:46:52.030Z,69.50
2018-04-06T08:49:19.496Z,69.40
2018-04-06T08:51:47.016Z,66.90
2018-04-06T08:54:15.262Z,63.20
2018-04-06T08:56:42.714Z,63.20
2018-04-06T08:59:10.178Z,64.20
2018-04-06T09:01:37.620Z,63.70
2018-04-06T09:04:05.082Z,62.90
2018-04-06T09:06:32.538Z,61.90
2018-04-06T09:09:00.010Z,59.80
2018-04-06T09:11:27.453Z,60.50
2018-04-06T09:13:54.939Z,60.10
2018-04-06T09:16:22.412Z,59.20
2018-04-06T09:18:49.846Z,58.70
2018-04-06T09:21:18.108Z,55.60
2018-04-06T09:23:45.547Z,55.50
2018-04-06T09:26:12.984Z,55.30
2018-04-06T09:28:40.441Z,55.10
2018-04-06T09:31:07.882Z,55.10
2018-04-06T09:33:35.328Z,53.50
2018-04-06T09:36:02.793Z,52.60
2018-04-06T09:38:30.305Z,53.90
2018-04-06T09:40:57.767Z,51.70
2018-04-06T09:43:25.203Z,53.10
2018-04-06T09:45:52.725Z,52.10
2018-04-06T09:48:20.922Z,51.60
2018-04-06T09:50:48.375Z,51.50
2018-04-06T09:53:15.835Z,50.40
2018-04-06T09:55:43.291Z,49.90
2018-04-06T09:58:10.726Z,49.90
2018-04-06T10:00:38.175Z,49.80
2018-04-06T10:03:05.614Z,49.90
2018-04-06T10:05:33.870Z,48.30
2018-04-06T10:08:01.334Z,48.20
2018-04-06T10:10:28.785Z,48.10
2018-04-06T10:12:56.283Z,48.30
2018-04-06T10:15:23.729Z,47.60
2018-04-06T10:17:51.998Z,45.30
2018-04-06T10:20:19.433Z,45.20
2018-04-06T10:22:46.891Z,45.50
2018-04-06T10:25:14.352Z,46.60
2018-04-06T10:27:41.804Z,45.80
2018-04-06T10:30:10.109Z,44.50
2018-04-06T10:32:37.555Z,44.50
2018-04-06T10:35:05.778Z,42.70
2018-04-06T10:37:33.215Z,42.70
2018-04-06T10:40:00.685Z,44.10
2018-04-06T10:42:28.126Z,43.80
2018-04-06T10:44:55.734Z,42.30
2018-04-06T10:47:23.387Z,40.90
2018-04-06T10:49:50.826Z,40.50
2018-04-06T10:52:18.269Z,39.20
2018-04-06T10:54:45.699Z,39.10
2018-04-06T10:57:13.945Z,39.40
2018-04-06T10:59:41.381Z,39.30
2018-04-06T11:02:08.906Z,38.90
2018-04-06T11:04:37.110Z,38.60
2018-04-06T11:07:05.384Z,38.50
2018-04-06T11:09:32.862Z,37.00
2018-04-06T11:12:00.338Z,36.80
2018-04-06T11:14:27.795Z,37.40
2018-04-06T11:16:55.281Z,36.50
2018-04-06T11:19:22.851Z,37.10
2018-04-06T11:21:50.332Z,35.40
2018-04-06T11:24:18.566Z,36.70
2018-04-06T11:26:46.067Z,36.60
2018-04-06T11:29:13.511Z,37.20
2018-04-06T11:31:40.979Z,36.30
2018-04-06T11:34:09.193Z,35.20
2018-04-06T11:36:36.696Z,35.00
2018-04-06T11:39:04.155Z,34.90
2018-04-06T11:41:31.602Z,33.90
2018-04-06T11:43:59.058Z,34.20
2018-04-06T11:46:26.531Z,33.40
2018-04-06T11:48:53.983Z,33.90
2018-04-06T11:51:21.426Z,34.40
2018-04-06T11:53:48.891Z,33.30
2018-04-06T11:56:16.317Z,33.10
2018-04-06T11:58:43.788Z,33.40
2018-04-06T12:01:11.234Z,31.60
2018-04-06T12:03:38.707Z,31.20
2018-04-06T12:06:06.166Z,30.30
2018-04-06T12:08:33.685Z,30.30
2018-04-06T12:11:01.154Z,30.00
2018-04-06T12:13:28.609Z,30.00
2018-04-06T12:15:56.085Z,29.60
2018-04-06T12:18:23.529Z,29.90
2018-04-06T12:20:51.000Z,30.20
2018-04-06T12:23:18.565Z,29.30
2018-04-06T12:25:46.102Z,29.70
2018-04-06T12:28:14.156Z,29.20
2018-04-06T12:30:41.598Z,28.40
2018-04-06T12:33:09.946Z,28.80
2018-04-06T12:35:37.423Z,28.50
2018-04-06T12:38:04.867Z,28.60
2018-04-06T12:40:32.446Z,28.10
2018-04-06T12:42:59.890Z,27.50
2018-04-06T12:45:27.343Z,27.50
2018-04-06T12:47:54.854Z,29.00
2018-04-06T12:50:22.275Z,28.40
2018-04-06T12:52:49.823Z,27.80
2018-04-06T12:55:18.038Z,27.30
2018-04-06T12:57:45.479Z,27.40
2018-04-06T13:00:12.964Z,27.50
2018-04-06T13:02:40.458Z,27.00
2018-04-06T13:05:08.762Z,27.30
2018-04-06T13:07:36.212Z,27.20
2018-04-06T13:10:04.433Z,27.30
2018-04-06T13:12:34.271Z,27.30
2018-04-06T13:15:01.817Z,26.90
2018-04-06T13:17:29.292Z,26.90
2018-04-06T13:19:56.783Z,26.00
2018-04-06T13:22:24.252Z,25.90
2018-04-06T13:24:52.528Z,25.40
2018-04-06T13:27:20.033Z,25.40
2018-04-06T13:29:47.482Z,25.90
2018-04-06T13:32:14.972Z,26.30
2018-04-06T13:34:42.401Z,25.40
2018-04-06T13:37:09.899Z,25.50
2018-04-06T13:39:37.344Z,25.10
2018-04-06T13:42:04.806Z,24.90
2018-04-06T13:44:32.286Z,24.90
2018-04-06T13:47:00.502Z,25.50
2018-04-06T13:49:27.960Z,25.50
2018-04-06T13:51:55.439Z,25.70
2018-04-06T13:54:22.986Z,25.20
2018-04-06T13:56:50.431Z,24.50
2018-04-06T13:59:17.887Z,24.20
2018-04-06T14:01:45.395Z,24.70
2018-04-06T14:04:12.849Z,24.80
2018-04-06T14:06:40.295Z,24.30
2018-04-06T14:09:07.727Z,24.80
2018-04-06T14:11:35.198Z,25.40
2018-04-06T14:14:02.646Z,25.30
2018-04-06T14:16:30.093Z,26.70
2018-04-06T14:18:57.553Z,27.40
2018-04-06T14:21:24.997Z,27.90
2018-04-06T14:23:52.488Z,27.40
2018-04-06T14:26:20.111Z,28.00
2018-04-06T14:28:47.574Z,27.90
2018-04-06T14:31:15.047Z,28.40
2018-04-06T14:33:43.323Z,28.30
2018-04-06T14:36:11.550Z,29.60
2018-04-06T14:38:38.979Z,29.50
2018-04-06T14:41:06.431Z,29.90
2018-04-06T14:43:33.875Z,30.10
2018-04-06T14:46:01.332Z,29.80
2018-04-06T14:48:28.772Z,30.70
2018-04-06T14:50:56.239Z,31.30
2018-04-06T14:53:23.686Z,32.10
2018-04-06T14:55:51.124Z,32.80
2018-04-06T14:58:18.580Z,33.00
2018-04-06T15:00:46.010Z,32.20
2018-04-06T15:03:14.241Z,32.90
2018-04-06T15:05:42.434Z,32.90
2018-04-06T15:08:09.894Z,32.70
2018-04-06T15:10:37.325Z,32.10
2018-04-06T15:13:05.534Z,31.50
2018-04-06T15:15:33.031Z,31.30
2018-04-06T15:18:00.487Z,31.80
2018-04-06T15:20:27.944Z,31.70
2018-04-06T15:22:55.388Z,32.70
2018-04-06T15:25:23.736Z,33.40
2018-04-06T15:27:51.158Z,33.80
2018-04-06T15:30:18.610Z,33.60
2018-04-06T15:32:46.042Z,34.00
2018-04-06T15:35:13.532Z,34.20
2018-04-06T15:37:40.994Z,34.50
2018-04-06T15:40:08.458Z,34.10
2018-04-06T15:42:36.682Z,33.80
2018-04-06T15:45:04.150Z,33.80
2018-04-06T15:47:31.602Z,34.20
2018-04-06T15:49:59.043Z,34.40
2018-04-06T15:52:26.523Z,34.50
2018-04-06T15:54:53.954Z,34.30
2018-04-06T15:57:21.410Z,35.10
2018-04-06T15:59:49.674Z,35.90
2018-04-06T16:02:17.878Z,36.80
2018-04-06T16:04:45.335Z,36.70
2018-04-06T16:07:12.805Z,36.70
2018-04-06T16:09:41.545Z,37.20
2018-04-06T16:12:09.002Z,38.30
2018-04-06T16:14:36.498Z,38.80
2018-04-06T16:17:03.974Z,39.90
2018-04-06T16:19:31.484Z,39.80
2018-04-06T16:21:58.940Z,39.80
2018-04-06T16:24:26.429Z,39.80
2018-04-06T16:26:53.996Z,39.80
2018-04-06T16:29:21.441Z,41.50
2018-04-06T16:31:48.902Z,40.30
2018-04-06T16:34:16.415Z,40.30
2018-04-06T16:36:43.914Z,40.60
2018-04-06T16:39:11.374Z,41.50
2018-04-06T16:41:39.635Z,39.90
2018-04-06T16:44:07.875Z,39.40
2018-04-06T16:46:35.380Z,39.30
2018-04-06T16:49:03.780Z,39.50
2018-04-06T16:51:31.234Z,39.50
2018-04-06T16:53:58.742Z,38.90
2018-04-06T16:56:26.189Z,39.50
2018-04-06T16:58:53.651Z,39.50
2018-04-06T17:01:21.137Z,39.30
2018-04-06T17:03:48.622Z,39.70
2018-04-06T17:06:16.082Z,40.30
2018-04-06T17:08:43.637Z,40.60
2018-04-06T17:13:44.938Z,41.30
2018-04-06T17:16:12.417Z,41.20
2018-04-06T17:18:40.667Z,40.40
2018-04-06T17:21:08.130Z,40.30
2018-04-06T17:23:35.610Z,40.70
2018-04-06T17:26:03.860Z,42.00
2018-04-06T17:28:31.461Z,42.00
2018-04-06T17:30:59.699Z,42.80
2018-04-06T17:33:27.177Z,42.80
2018-04-06T17:35:54.650Z,42.80
2018-04-06T17:38:22.890Z,43.20
2018-04-06T17:40:50.374Z,43.10
2018-04-06T17:43:18.604Z,43.80
2018-04-06T17:45:46.083Z,43.80
2018-04-06T17:48:13.535Z,44.10
2018-04-06T17:50:41.014Z,44.80
2018-04-06T17:53:09.230Z,46.30
2018-04-06T17:55:36.711Z,46.30
2018-04-06T17:58:04.168Z,47.10
2018-04-06T18:00:31.671Z,47.20
2018-04-06T18:02:59.121Z,49.40
2018-04-06T18:05:27.330Z,50.40
2018-04-06T18:07:54.810Z,50.30
2018-04-06T18:10:22.258Z,50.90
2018-04-06T18:12:49.743Z,51.20
2018-04-06T18:15:17.217Z,51.90
2018-04-06T18:17:45.478Z,52.60
2018-04-06T18:20:12.943Z,52.50
2018-04-06T18:22:40.419Z,53.20
2018-04-06T18:25:08.670Z,53.60
2018-04-06T18:27:36.190Z,53.60
2018-04-06T18:30:03.670Z,53.80
2018-04-06T18:32:31.144Z,54.10
2018-04-06T18:34:58.658Z,54.30
2018-04-06T18:37:26.169Z,55.00
2018-04-06T18:39:53.623Z,54.40
2018-04-06T18:42:21.104Z,54.50
2018-04-06T18:44:49.372Z,54.90
2018-04-06T18:47:16.796Z,54.90
2018-04-06T18:49:45.010Z,56.20
2018-04-06T18:52:12.646Z,56.10
2018-04-06T18:54:40.373Z,56.40
2018-04-06T18:57:07.827Z,56.40
2018-04-06T18:59:35.320Z,56.80
2018-04-06T19:02:02.781Z,57.00
2018-04-06T19:04:30.314Z,57.30
2018-04-06T19:06:57.782Z,57.60
2018-04-06T19:09:25.233Z,57.80
2018-04-06T19:11:52.697Z,57.90
2018-04-06T19:14:20.175Z,57.60
2018-04-06T19:16:47.635Z,57.70
2018-04-06T19:19:15.109Z,58.30
2018-04-06T19:21:43.338Z,59.10
2018-04-06T19:24:10.786Z,59.10
2018-04-06T19:26:38.262Z,59.10
2018-04-06T19:29:05.719Z,59.00
2018-04-06T19:31:33.157Z,59.00
2018-04-06T19:34:00.654Z,59.70
2018-04-06T19:36:28.879Z,59.80
2018-04-06T19:38:56.350Z,59.80
2018-04-06T19:41:23.806Z,59.60
2018-04-06T19:43:51.261Z,59.40
2018-04-06T19:46:18.714Z,59.20
2018-04-06T19:48:46.182Z,59.20
2018-04-06T19:51:13.671Z,59.00
2018-04-06T19:53:41.885Z,58.80
2018-04-06T19:56:09.354Z,58.90
2018-04-06T19:58:36.842Z,58.80
2018-04-06T20:01:04.300Z,58.10
2018-04-06T20:03:31.802Z,58.00
2018-04-06T20:05:59.291Z,57.80
2018-04-06T20:08:26.788Z,57.90
2018-04-06T20:10:54.254Z,57.60
2018-04-06T20:13:22.479Z,57.30
2018-04-06T20:15:49.968Z,57.20
2018-04-06T20:18:17.445Z,57.20
2018-04-06T20:20:45.713Z,57.50
2018-04-06T20:23:13.173Z,57.40
2018-04-06T20:25:40.634Z,57.50
2018-04-06T20:28:08.120Z,57.60
2018-04-06T20:30:35.597Z,57.70
2018-04-06T20:33:03.091Z,58.00
2018-04-06T20:35:30.587Z,58.00
2018-04-06T20:37:58.079Z,57.90
2018-04-06T20:40:25.591Z,58.00
2018-04-06T20:42:53.814Z,58.10
2018-04-06T20:45:21.270Z,58.00
2018-04-06T20:47:48.779Z,58.00
2018-04-06T20:50:17.006Z,57.70
2018-04-06T20:52:44.491Z,57.60
2018-04-06T20:55:12.051Z,57.80
2018-04-06T20:57:40.346Z,58.00
2018-04-06T21:00:07.782Z,58.00
2018-04-06T21:02:35.242Z,58.60
2018-04-06T21:05:03.536Z,58.20
2018-04-06T21:07:30.978Z,58.20
2018-04-06T21:09:59.224Z,58.30
2018-04-06T21:12:26.680Z,58.30
2018-04-06T21:14:54.133Z,58.40
2018-04-06T21:17:21.614Z,58.50
2018-04-06T21:19:49.055Z,58.50
2018-04-06T21:22:16.526Z,58.40
2018-04-06T21:24:44.018Z,58.30
2018-04-06T21:27:11.494Z,58.40
2018-04-06T21:29:38.980Z,58.60
2018-04-06T21:32:06.436Z,58.80
2018-04-06T21:34:33.895Z,58.60
2018-04-06T21:37:01.379Z,58.70
2018-04-06T21:39:28.860Z,58.70
2018-04-06T21:41:56.342Z,58.70
2018-04-06T21:44:23.827Z,58.70
2018-04-06T21:46:51.302Z,59.00
2018-04-06T21:49:18.790Z,58.70
2018-04-06T21:51:46.269Z,59.00
2018-04-06T21:54:13.730Z,59.10
2018-04-06T21:56:41.187Z,59.40
2018-04-06T21:59:08.670Z,59.70
2018-04-06T22:01:36.128Z,59.70
2018-04-06T22:04:03.610Z,59.70
2018-04-06T22:06:31.062Z,59.90
2018-04-06T22:08:58.514Z,59.90
2018-04-06T22:11:25.981Z,60.30
2018-04-06T22:13:54.229Z,60.20
2018-04-06T22:16:21.691Z,60.10
2018-04-06T22:18:49.198Z,60.20
2018-04-06T22:21:16.683Z,60.20
2018-04-06T22:23:44.161Z,60.30
2018-04-06T22:26:11.628Z,60.40
2018-04-06T22:28:39.082Z,60.10
2018-04-06T22:31:06.558Z,60.20
2018-04-06T22:33:34.813Z,60.90
2018-04-06T22:36:02.262Z,60.10
2018-04-06T22:38:29.747Z,60.10
2018-04-06T22:40:57.966Z,59.70
2018-04-06T22:43:25.426Z,60.30
2018-04-06T22:45:52.911Z,59.40
2018-04-06T22:48:20.380Z,59.30
2018-04-06T22:50:47.859Z,59.30
2018-04-06T22:53:16.098Z,59.50
2018-04-06T22:55:43.573Z,59.50
2018-04-06T22:58:11.030Z,59.10
2018-04-06T23:00:38.538Z,59.30
2018-04-06T23:03:05.993Z,59.20
2018-04-06T23:05:33.450Z,59.30
2018-04-06T23:08:00.938Z,59.30
2018-04-06T23:10:28.414Z,59.20
2018-04-06T23:12:55.862Z,59.30
2018-04-06T23:15:23.350Z,59.20
2018-04-06T23:17:51.559Z,59.50
2018-04-06T23:20:19.036Z,59.40
2018-04-06T23:22:47.493Z,59.30
2018-04-06T23:25:14.953Z,59.40
2018-04-06T23:27:42.423Z,59.60
2018-04-06T23:30:09.870Z,59.50
2018-04-06T23:32:37.457Z,59.60
2018-04-06T23:35:04.937Z,59.60
2018-04-06T23:37:32.445Z,59.70
2018-04-06T23:39:59.914Z,59.70
2018-04-06T23:42:27.383Z,59.80
2018-04-06T23:44:54.874Z,59.70
2018-04-06T23:47:23.131Z,59.50
2018-04-06T23:49:51.386Z,59.50
2018-04-06T23:52:18.861Z,59.50
2018-04-06T23:54:46.342Z,59.70
2018-04-06T23:57:14.590Z,59.60
2018-04-06T23:59:42.048Z,59.60
